createdAt,value
2024-03-22T00:00:36.665Z,1014.49
2024-03-22T00:01:36.693Z,1014.46
2024-03-22T00:02:36.655Z,1014.42
2024-03-22T00:03:36.636Z,1014.35
2024-03-22T00:04:36.620Z,1014.37
2024-03-22T00:05:36.709Z,1014.38
2024-03-22T00:06:36.606Z,1014.35
2024-03-22T00:07:36.587Z,1014.40
2024-03-22T00:08:36.617Z,1014.35
2024-03-22T00:09:36.574Z,1014.38
2024-03-22T00:10:36.593Z,1014.32
2024-03-22T00:11:36.560Z,1014.35
2024-03-22T00:12:36.538Z,1014.38
2024-03-22T00:13:36.523Z,1014.37
2024-03-22T00:14:37.023Z,1014.42
2024-03-22T00:15:36.501Z,1014.40
2024-03-22T00:16:36.537Z,1014.32
2024-03-22T00:17:36.500Z,1014.35
2024-03-22T00:18:36.462Z,1014.28
2024-03-22T00:19:36.477Z,1014.27
2024-03-22T00:20:36.574Z,1014.22
2024-03-22T00:21:36.430Z,1014.12
2024-03-22T00:22:36.431Z,1014.11
2024-03-22T00:23:36.457Z,1014.09
2024-03-22T00:24:36.421Z,1014.15
2024-03-22T00:25:36.390Z,1014.05
2024-03-22T00:26:36.379Z,1014.12
2024-03-22T00:27:36.389Z,1014.15
2024-03-22T00:28:36.349Z,1014.15
2024-03-22T00:29:36.403Z,1014.14
2024-03-22T00:30:37.224Z,1014.21
2024-03-22T00:31:36.319Z,1014.14
2024-03-22T00:32:36.343Z,1014.14
2024-03-22T00:33:36.308Z,1014.02
2024-03-22T00:34:36.306Z,1013.96
2024-03-22T00:35:36.314Z,1013.95
2024-03-22T00:36:36.277Z,1013.98
2024-03-22T00:37:36.262Z,1013.94
2024-03-22T00:38:36.284Z,1013.92
2024-03-22T00:39:36.225Z,1013.87
2024-03-22T00:40:36.239Z,1013.86
2024-03-22T00:41:36.226Z,1013.83
2024-03-22T00:42:36.204Z,1013.85
2024-03-22T00:43:36.189Z,1013.79
2024-03-22T00:44:36.218Z,1013.83
2024-03-22T00:45:36.169Z,1013.78
2024-03-22T00:46:36.157Z,1013.80
2024-03-22T00:47:36.171Z,1013.81
2024-03-22T00:48:36.132Z,1013.79
2024-03-22T00:49:36.165Z,1013.77
2024-03-22T00:50:36.145Z,1013.81
2024-03-22T00:51:36.096Z,1013.82
2024-03-22T00:52:36.093Z,1013.83
2024-03-22T00:53:36.105Z,1013.79
2024-03-22T00:54:36.076Z,1013.77
2024-03-22T00:55:36.069Z,1013.75
2024-03-22T00:56:36.071Z,1013.76
2024-03-22T00:57:36.026Z,1013.75
2024-03-22T00:58:36.012Z,1013.71
2024-03-22T00:59:36.057Z,1013.65
2024-03-22T01:00:35.991Z,1013.65
2024-03-22T01:01:35.975Z,1013.64
2024-03-22T01:02:35.997Z,1013.63
2024-03-22T01:03:35.965Z,1013.71
2024-03-22T01:04:35.952Z,1013.67
2024-03-22T01:05:36.017Z,1013.57
2024-03-22T01:06:35.920Z,1013.66
2024-03-22T01:07:35.928Z,1013.62
2024-03-22T01:08:35.921Z,1013.60
2024-03-22T01:09:35.907Z,1013.60
2024-03-22T01:10:35.900Z,1013.60
2024-03-22T01:11:35.891Z,1013.66
2024-03-22T01:12:35.855Z,1013.59
2024-03-22T01:13:35.871Z,1013.58
2024-03-22T01:14:35.858Z,1013.55
2024-03-22T01:15:35.819Z,1013.54
2024-03-22T01:16:35.805Z,1013.57
2024-03-22T01:17:35.804Z,1013.53
2024-03-22T01:18:35.815Z,1013.47
2024-03-22T01:19:35.778Z,1013.48
2024-03-22T01:20:35.774Z,1013.48
2024-03-22T01:21:35.758Z,1013.39
2024-03-22T01:22:35.751Z,1013.35
2024-03-22T01:23:35.823Z,1013.42
2024-03-22T01:24:35.716Z,1013.35
2024-03-22T01:25:35.714Z,1013.37
2024-03-22T01:26:35.711Z,1013.41
2024-03-22T01:27:35.693Z,1013.29
2024-03-22T01:28:35.670Z,1013.42
2024-03-22T01:29:35.668Z,1013.43
2024-03-22T01:30:35.675Z,1013.41
2024-03-22T01:31:35.636Z,1013.38
2024-03-22T01:32:35.642Z,1013.40
2024-03-22T01:33:35.620Z,1013.38
2024-03-22T01:34:35.610Z,1013.34
2024-03-22T01:35:35.613Z,1013.33
2024-03-22T01:36:35.579Z,1013.33
2024-03-22T01:37:35.593Z,1013.29
2024-03-22T01:38:35.573Z,1013.23
2024-03-22T01:39:35.546Z,1013.18
2024-03-22T01:40:35.558Z,1013.25
2024-03-22T01:41:35.542Z,1013.20
2024-03-22T01:42:35.527Z,1013.12
2024-03-22T01:43:35.509Z,1013.14
2024-03-22T01:44:35.530Z,1013.12
2024-03-22T01:45:35.483Z,1013.08
2024-03-22T01:46:35.487Z,1013.05
2024-03-22T01:47:35.479Z,1013.07
2024-03-22T01:48:35.454Z,1013.12
2024-03-22T01:49:35.436Z,1013.06
2024-03-22T01:50:35.428Z,1012.99
2024-03-22T01:51:35.410Z,1013.04
2024-03-22T01:52:35.418Z,1012.96
2024-03-22T01:53:35.410Z,1012.83
2024-03-22T01:54:35.398Z,1012.87
2024-03-22T01:55:35.368Z,1012.86
2024-03-22T01:56:35.360Z,1012.84
2024-03-22T01:57:35.354Z,1012.83
2024-03-22T01:58:35.354Z,1012.92
2024-03-22T01:59:35.358Z,1012.94
2024-03-22T02:00:35.310Z,1012.90
2024-03-22T02:01:35.297Z,1012.87
2024-03-22T02:02:35.296Z,1012.91
2024-03-22T02:03:35.283Z,1012.90
2024-03-22T02:04:35.265Z,1012.90
2024-03-22T02:05:35.256Z,1012.90
2024-03-22T02:06:35.270Z,1012.88
2024-03-22T02:07:35.239Z,1012.89
2024-03-22T02:08:35.250Z,1012.88
2024-03-22T02:09:35.239Z,1012.83
2024-03-22T02:10:35.198Z,1012.89
2024-03-22T02:11:35.217Z,1012.84
2024-03-22T02:12:35.197Z,1012.83
2024-03-22T02:13:35.168Z,1012.84
2024-03-22T02:14:35.179Z,1012.89
2024-03-22T02:15:35.152Z,1012.87
2024-03-22T02:16:35.137Z,1012.84
2024-03-22T02:17:35.137Z,1012.86
2024-03-22T02:18:35.114Z,1012.85
2024-03-22T02:19:35.097Z,1012.76
2024-03-22T02:20:35.104Z,1012.73
2024-03-22T02:21:35.077Z,1012.76
2024-03-22T02:22:35.090Z,1012.71
2024-03-22T02:23:35.068Z,1012.59
2024-03-22T02:24:35.048Z,1012.61
2024-03-22T02:25:35.049Z,1012.54
2024-03-22T02:26:35.068Z,1012.59
2024-03-22T02:27:35.013Z,1012.58
2024-03-22T02:28:35.002Z,1012.65
2024-03-22T02:29:35.004Z,1012.53
2024-03-22T02:30:34.978Z,1012.57
2024-03-22T02:31:35.007Z,1012.55
2024-03-22T02:32:34.956Z,1012.52
2024-03-22T02:33:34.943Z,1012.57
2024-03-22T02:34:39.160Z,1012.58
2024-03-22T02:35:35.936Z,1012.59
2024-03-22T02:36:34.930Z,1012.53
2024-03-22T02:37:34.912Z,1012.43
2024-03-22T02:38:34.894Z,1012.52
2024-03-22T02:39:34.875Z,1012.52
2024-03-22T02:40:34.874Z,1012.46
2024-03-22T02:41:34.954Z,1012.46
2024-03-22T02:42:34.853Z,1012.33
2024-03-22T02:43:34.844Z,1012.35
2024-03-22T02:44:34.824Z,1012.37
2024-03-22T02:45:34.808Z,1012.30
2024-03-22T02:46:34.803Z,1012.28
2024-03-22T02:47:34.826Z,1012.22
2024-03-22T02:48:34.777Z,1012.26
2024-03-22T02:49:34.762Z,1012.26
2024-03-22T02:50:34.819Z,1012.19
2024-03-22T02:51:34.760Z,1012.11
2024-03-22T02:52:34.746Z,1012.09
2024-03-22T02:53:34.772Z,1012.18
2024-03-22T02:54:34.713Z,1012.16
2024-03-22T02:55:34.692Z,1012.05
2024-03-22T02:56:34.692Z,1012.09
2024-03-22T02:57:34.690Z,1012.00
2024-03-22T02:58:34.691Z,1011.99
2024-03-22T02:59:34.651Z,1011.95
2024-03-22T03:00:34.658Z,1011.93
2024-03-22T03:01:34.627Z,1011.96
2024-03-22T03:02:34.621Z,1011.97
2024-03-22T03:03:34.617Z,1012.02
2024-03-22T03:04:34.617Z,1011.97
2024-03-22T03:05:34.585Z,1011.95
2024-03-22T03:06:34.584Z,1011.93
2024-03-22T03:07:34.560Z,1011.94
2024-03-22T03:08:34.552Z,1011.93
2024-03-22T03:09:34.542Z,1011.89
2024-03-22T03:10:34.553Z,1011.89
2024-03-22T03:11:34.514Z,1011.90
2024-03-22T03:12:34.519Z,1011.84
2024-03-22T03:13:34.500Z,1011.93
2024-03-22T03:14:34.484Z,1011.86
2024-03-22T03:15:34.468Z,1011.84
2024-03-22T03:16:34.501Z,1011.89
2024-03-22T03:17:34.462Z,1011.85
2024-03-22T03:18:34.447Z,1011.85
2024-03-22T03:19:34.426Z,1011.83
2024-03-22T03:20:34.443Z,1011.80
2024-03-22T03:21:34.398Z,1011.75
2024-03-22T03:22:34.385Z,1011.73
2024-03-22T03:23:34.378Z,1011.70
2024-03-22T03:24:34.370Z,1011.63
2024-03-22T03:25:34.362Z,1011.59
2024-03-22T03:26:34.364Z,1011.56
2024-03-22T03:27:34.338Z,1011.60
2024-03-22T03:28:34.333Z,1011.52
2024-03-22T03:29:34.320Z,1011.53
2024-03-22T03:30:34.297Z,1011.52
2024-03-22T03:31:34.347Z,1011.50
2024-03-22T03:32:34.331Z,1011.44
2024-03-22T03:33:34.262Z,1011.44
2024-03-22T03:34:34.252Z,1011.40
2024-03-22T03:35:34.242Z,1011.44
2024-03-22T03:36:34.250Z,1011.45
2024-03-22T03:37:34.238Z,1011.48
2024-03-22T03:38:34.213Z,1011.46
2024-03-22T03:39:34.195Z,1011.45
2024-03-22T03:40:34.184Z,1011.40
2024-03-22T03:41:34.186Z,1011.45
2024-03-22T03:42:34.162Z,1011.48
2024-03-22T03:43:34.169Z,1011.47
2024-03-22T03:44:34.143Z,1011.33
2024-03-22T03:45:34.141Z,1011.30
2024-03-22T03:46:34.126Z,1011.42
2024-03-22T03:47:34.107Z,1011.33
2024-03-22T03:48:34.119Z,1011.26
2024-03-22T03:49:34.083Z,1011.31
2024-03-22T03:50:34.076Z,1011.21
2024-03-22T03:51:34.077Z,1011.15
2024-03-22T03:52:34.069Z,1011.11
2024-03-22T03:53:34.036Z,1011.06
2024-03-22T03:54:34.033Z,1011.02
2024-03-22T03:55:34.019Z,1011.02
2024-03-22T03:56:34.008Z,1011.03
2024-03-22T03:57:33.996Z,1011.04
2024-03-22T03:58:34.018Z,1011.06
2024-03-22T03:59:33.972Z,1011.00
2024-03-22T04:00:33.976Z,1010.94
2024-03-22T04:01:33.961Z,1010.96
2024-03-22T04:02:33.938Z,1011.01
2024-03-22T04:03:33.930Z,1011.01
2024-03-22T04:04:33.935Z,1010.96
2024-03-22T04:05:33.914Z,1010.99
2024-03-22T04:06:33.925Z,1010.99
2024-03-22T04:07:33.890Z,1010.97
2024-03-22T04:08:33.887Z,1010.91
2024-03-22T04:09:33.864Z,1010.98
2024-03-22T04:10:33.880Z,1010.91
2024-03-22T04:11:33.838Z,1010.84
2024-03-22T04:12:33.863Z,1010.91
2024-03-22T04:13:33.817Z,1010.85
2024-03-22T04:14:33.820Z,1010.84
2024-03-22T04:15:33.810Z,1010.82
2024-03-22T04:16:33.788Z,1010.72
2024-03-22T04:17:33.782Z,1010.75
2024-03-22T04:18:33.772Z,1010.73
2024-03-22T04:19:33.753Z,1010.80
2024-03-22T04:20:33.735Z,1010.74
2024-03-22T04:21:33.756Z,1010.72
2024-03-22T04:22:33.715Z,1010.73
2024-03-22T04:23:33.704Z,1010.62
2024-03-22T04:24:33.694Z,1010.57
2024-03-22T04:25:33.706Z,1010.63
2024-03-22T04:26:33.668Z,1010.61
2024-03-22T04:27:33.659Z,1010.63
2024-03-22T04:28:33.648Z,1010.59
2024-03-22T04:29:33.634Z,1010.54
2024-03-22T04:30:33.625Z,1010.52
2024-03-22T04:31:33.627Z,1010.54
2024-03-22T04:32:33.603Z,1010.55
2024-03-22T04:33:33.606Z,1010.49
2024-03-22T04:34:33.587Z,1010.43
2024-03-22T04:35:33.591Z,1010.35
2024-03-22T04:36:33.572Z,1010.42
2024-03-22T04:37:33.552Z,1010.39
2024-03-22T04:38:33.528Z,1010.40
2024-03-22T04:39:33.519Z,1010.48
2024-03-22T04:40:33.523Z,1010.42
2024-03-22T04:41:33.518Z,1010.44
2024-03-22T04:42:33.498Z,1010.44
2024-03-22T04:43:33.476Z,1010.47
2024-03-22T04:44:33.474Z,1010.38
2024-03-22T04:45:33.457Z,1010.39
2024-03-22T04:46:33.479Z,1010.48
2024-03-22T04:47:33.434Z,1010.39
2024-03-22T04:48:33.421Z,1010.42
2024-03-22T04:49:33.432Z,1010.49
2024-03-22T04:50:33.405Z,1010.54
2024-03-22T04:51:33.410Z,1010.52
2024-03-22T04:52:33.408Z,1010.56
2024-03-22T04:53:33.367Z,1010.56
2024-03-22T04:54:33.362Z,1010.63
2024-03-22T04:55:33.359Z,1010.60
2024-03-22T04:56:33.338Z,1010.61
2024-03-22T04:57:33.324Z,1010.70
2024-03-22T04:58:33.322Z,1010.66
2024-03-22T04:59:33.310Z,1010.66
2024-03-22T05:00:33.287Z,1010.63
2024-03-22T05:01:33.311Z,1010.55
2024-03-22T05:02:33.266Z,1010.57
2024-03-22T05:03:33.260Z,1010.56
2024-03-22T05:04:33.951Z,1010.59
2024-03-22T05:05:33.248Z,1010.65
2024-03-22T05:06:33.261Z,1010.61
2024-03-22T05:07:33.209Z,1010.59
2024-03-22T05:08:33.204Z,1010.58
2024-03-22T05:09:33.189Z,1010.54
2024-03-22T05:10:33.177Z,1010.57
2024-03-22T05:11:33.176Z,1010.51
2024-03-22T05:12:34.474Z,1010.51
2024-03-22T05:13:33.156Z,1010.53
2024-03-22T05:14:33.142Z,1010.60
2024-03-22T05:15:33.136Z,1010.56
2024-03-22T05:16:33.122Z,1010.50
2024-03-22T05:17:33.097Z,1010.60
2024-03-22T05:18:33.086Z,1010.51
2024-03-22T05:19:33.081Z,1010.43
2024-03-22T05:20:33.059Z,1010.48
2024-03-22T05:21:33.084Z,1010.45
2024-03-22T05:22:33.060Z,1010.52
2024-03-22T05:23:33.034Z,1010.42
2024-03-22T05:24:33.026Z,1010.39
2024-03-22T05:25:33.019Z,1010.35
2024-03-22T05:26:33.000Z,1010.35
2024-03-22T05:27:32.992Z,1010.41
2024-03-22T05:28:32.992Z,1010.35
2024-03-22T05:29:32.962Z,1010.33
2024-03-22T05:30:32.944Z,1010.31
2024-03-22T05:31:32.967Z,1010.32
2024-03-22T05:32:32.945Z,1010.34
2024-03-22T05:33:32.941Z,1010.36
2024-03-22T05:34:32.907Z,1010.35
2024-03-22T05:35:32.888Z,1010.37
2024-03-22T05:36:32.891Z,1010.46
2024-03-22T05:37:32.890Z,1010.36
2024-03-22T05:38:32.858Z,1010.37
2024-03-22T05:39:32.849Z,1010.38
2024-03-22T05:40:32.839Z,1010.41
2024-03-22T05:41:32.823Z,1010.44
2024-03-22T05:42:32.829Z,1010.44
2024-03-22T05:43:32.807Z,1010.43
2024-03-22T05:44:32.806Z,1010.35
2024-03-22T05:45:32.826Z,1010.35
2024-03-22T05:46:32.766Z,1010.36
2024-03-22T05:47:38.248Z,1010.39
2024-03-22T05:48:33.751Z,1010.35
2024-03-22T05:49:32.739Z,1010.35
2024-03-22T05:50:32.778Z,1010.34
2024-03-22T05:51:32.717Z,1010.29
2024-03-22T05:52:32.697Z,1010.29
2024-03-22T05:53:32.730Z,1010.31
2024-03-22T05:54:32.686Z,1010.33
2024-03-22T05:55:32.684Z,1010.26
2024-03-22T05:56:32.662Z,1010.26
2024-03-22T05:57:32.657Z,1010.27
2024-03-22T05:58:32.651Z,1010.25
2024-03-22T05:59:32.637Z,1010.26
2024-03-22T06:00:32.640Z,1010.23
2024-03-22T06:01:32.617Z,1010.20
2024-03-22T06:02:32.596Z,1010.22
2024-03-22T06:03:32.582Z,1010.29
2024-03-22T06:04:32.559Z,1010.19
2024-03-22T06:05:32.565Z,1010.19
2024-03-22T06:06:32.540Z,1010.25
2024-03-22T06:07:32.530Z,1010.23
2024-03-22T06:08:32.544Z,1010.29
2024-03-22T06:09:32.523Z,1010.32
2024-03-22T06:10:32.508Z,1010.33
2024-03-22T06:11:32.487Z,1010.38
2024-03-22T06:12:32.495Z,1010.34
2024-03-22T06:13:32.461Z,1010.40
2024-03-22T06:14:32.455Z,1010.39
2024-03-22T06:15:32.456Z,1010.42
2024-03-22T06:16:32.449Z,1010.36
2024-03-22T06:17:32.419Z,1010.39
2024-03-22T06:18:32.410Z,1010.35
2024-03-22T06:19:32.395Z,1010.31
2024-03-22T06:20:32.409Z,1010.39
2024-03-22T06:21:32.379Z,1010.26
2024-03-22T06:22:32.368Z,1010.28
2024-03-22T06:23:32.358Z,1010.28
2024-03-22T06:24:32.345Z,1010.28
2024-03-22T06:25:32.350Z,1010.27
2024-03-22T06:26:38.130Z,1010.27
2024-03-22T06:27:33.333Z,1010.19
2024-03-22T06:28:32.303Z,1010.17
2024-03-22T06:29:32.289Z,1010.23
2024-03-22T06:30:32.284Z,1010.14
2024-03-22T06:31:32.259Z,1010.16
2024-03-22T06:32:32.312Z,1010.11
2024-03-22T06:33:32.263Z,1010.17
2024-03-22T06:34:32.226Z,1010.11
2024-03-22T06:35:34.058Z,1010.19
2024-03-22T06:36:32.206Z,1010.22
2024-03-22T06:37:32.194Z,1010.22
2024-03-22T06:38:32.183Z,1010.17
2024-03-22T06:39:32.187Z,1010.18
2024-03-22T06:40:32.157Z,1010.07
2024-03-22T06:41:32.165Z,1010.00
2024-03-22T06:42:32.143Z,1010.09
2024-03-22T06:43:32.126Z,1010.12
2024-03-22T06:44:32.116Z,1010.12
2024-03-22T06:45:32.124Z,1010.11
2024-03-22T06:46:32.107Z,1010.08
2024-03-22T06:47:32.078Z,1010.07
2024-03-22T06:48:32.065Z,1010.05
2024-03-22T06:49:32.076Z,1010.04
2024-03-22T06:50:32.044Z,1010.07
2024-03-22T06:51:32.067Z,1010.21
2024-03-22T06:52:32.031Z,1010.13
2024-03-22T06:53:32.032Z,1010.05
2024-03-22T06:54:32.018Z,1010.09
2024-03-22T06:55:31.991Z,1010.09
2024-03-22T06:56:31.997Z,1010.08
2024-03-22T06:57:32.052Z,1010.04
2024-03-22T06:58:31.954Z,1010.09
2024-03-22T06:59:31.943Z,1010.07
2024-03-22T07:00:31.935Z,1010.05
2024-03-22T07:01:31.934Z,1010.03
2024-03-22T07:02:31.924Z,1009.99
2024-03-22T07:03:31.900Z,1010.00
2024-03-22T07:04:31.891Z,1010.02
2024-03-22T07:05:31.901Z,1010.02
2024-03-22T07:06:31.872Z,1010.06
2024-03-22T07:07:31.855Z,1010.07
2024-03-22T07:08:31.840Z,1010.04
2024-03-22T07:09:31.836Z,1009.98
2024-03-22T07:10:31.825Z,1010.05
2024-03-22T07:11:31.844Z,1010.04
2024-03-22T07:12:31.797Z,1010.01
2024-03-22T07:13:31.802Z,1010.02
2024-03-22T07:14:33.071Z,1010.02
2024-03-22T07:15:31.773Z,1010.06
2024-03-22T07:16:31.752Z,1010.06
2024-03-22T07:17:31.750Z,1010.04
2024-03-22T07:18:31.726Z,1009.99
2024-03-22T07:19:31.721Z,1010.00
2024-03-22T07:20:31.734Z,1010.01
2024-03-22T07:21:31.721Z,1010.06
2024-03-22T07:22:31.704Z,1010.04
2024-03-22T07:23:31.678Z,1010.05
2024-03-22T07:24:31.666Z,1009.97
2024-03-22T07:25:31.653Z,1010.03
2024-03-22T07:26:31.639Z,1010.03
2024-03-22T07:27:31.650Z,1010.03
2024-03-22T07:28:31.637Z,1010.07
2024-03-22T07:29:31.619Z,1010.05
2024-03-22T07:30:31.596Z,1009.98
2024-03-22T07:31:31.581Z,1010.04
2024-03-22T07:32:31.586Z,1009.99
2024-03-22T07:33:31.560Z,1010.01
2024-03-22T07:34:31.547Z,1010.01
2024-03-22T07:35:31.536Z,1009.98
2024-03-22T07:36:31.534Z,1009.96
2024-03-22T07:37:31.528Z,1009.94
2024-03-22T07:47:56.894Z,1010.05
2024-03-22T07:48:56.889Z,1010.02
2024-03-22T07:49:56.845Z,1010.00
2024-03-22T07:50:56.855Z,1009.98
2024-03-22T07:51:56.938Z,1009.96
2024-03-22T07:52:56.860Z,1009.94
2024-03-22T07:53:56.823Z,1009.98
2024-03-22T07:54:56.796Z,1009.94
2024-03-22T07:55:56.791Z,1010.00
2024-03-22T07:56:56.781Z,1009.98
2024-03-22T07:57:56.755Z,1009.95
2024-03-22T07:58:56.766Z,1009.97
2024-03-22T07:59:56.775Z,1009.88
2024-03-22T08:00:56.721Z,1009.93
2024-03-22T08:02:04.814Z,1010.02
2024-03-22T08:02:56.711Z,1009.91
2024-03-22T08:03:56.706Z,1009.93
2024-03-22T08:04:56.715Z,1009.94
2024-03-22T08:05:56.721Z,1009.99
2024-03-22T08:06:57.945Z,1009.97
2024-03-22T08:07:56.655Z,1009.98
2024-03-22T08:08:56.643Z,1009.93
2024-03-22T08:09:56.640Z,1009.96
2024-03-22T08:10:56.608Z,1010.00
2024-03-22T08:11:56.614Z,1009.96
2024-03-22T08:12:56.645Z,1009.99
2024-03-22T08:13:56.573Z,1009.98
2024-03-22T08:14:56.577Z,1009.95
2024-03-22T08:15:56.586Z,1010.00
2024-03-22T08:16:56.590Z,1009.97
2024-03-22T08:17:56.607Z,1010.01
2024-03-22T08:18:56.520Z,1009.93
2024-03-22T08:19:56.526Z,1009.87
2024-03-22T08:20:56.611Z,1009.92
2024-03-22T08:21:56.507Z,1009.89
2024-03-22T08:22:56.516Z,1009.84
2024-03-22T08:23:56.502Z,1009.87
2024-03-22T08:24:56.489Z,1009.84
2024-03-22T08:25:56.455Z,1009.86
2024-03-22T08:26:56.467Z,1009.82
2024-03-22T08:28:02.171Z,1009.85
2024-03-22T08:28:57.405Z,1009.81
2024-03-22T08:29:56.505Z,1009.77
2024-03-22T08:30:56.427Z,1009.79
2024-03-22T08:31:56.457Z,1009.80
2024-03-22T08:32:56.390Z,1009.74
2024-03-22T08:33:56.352Z,1009.75
2024-03-22T08:34:56.341Z,1009.68
2024-03-22T08:35:56.465Z,1009.71
2024-03-22T08:36:56.321Z,1009.63
2024-03-22T08:37:56.304Z,1009.67
2024-03-22T08:38:56.312Z,1009.65
2024-03-22T08:39:56.281Z,1009.68
2024-03-22T08:40:56.272Z,1009.55
2024-03-22T08:41:56.272Z,1009.54
2024-03-22T08:42:56.250Z,1009.59
2024-03-22T08:43:56.244Z,1009.54
2024-03-22T08:44:56.310Z,1009.52
2024-03-22T08:45:56.259Z,1009.59
2024-03-22T08:46:56.217Z,1009.52
2024-03-22T08:47:56.213Z,1009.56
2024-03-22T08:48:56.178Z,1009.61
2024-03-22T08:49:56.191Z,1009.58
2024-03-22T08:50:56.190Z,1009.55
2024-03-22T08:51:56.168Z,1009.58
2024-03-22T08:52:56.159Z,1009.58
2024-03-22T08:53:56.139Z,1009.58
2024-03-22T08:54:56.134Z,1009.65
2024-03-22T08:55:56.106Z,1009.61
2024-03-22T08:56:56.101Z,1009.58
2024-03-22T08:58:01.306Z,1009.62
2024-03-22T08:58:57.073Z,1009.56
2024-03-22T08:59:56.122Z,1009.61
2024-03-22T09:00:56.094Z,1009.57
2024-03-22T09:01:56.105Z,1009.55
2024-03-22T09:02:56.109Z,1009.65
2024-03-22T09:03:56.015Z,1009.70
2024-03-22T09:04:56.012Z,1009.63
2024-03-22T09:06:00.769Z,1009.62
2024-03-22T09:06:57.056Z,1009.65
2024-03-22T09:07:55.990Z,1009.72
2024-03-22T09:08:55.981Z,1009.62
2024-03-22T09:09:55.945Z,1009.62
2024-03-22T09:10:55.970Z,1009.55
2024-03-22T09:11:56.028Z,1009.59
2024-03-22T09:12:55.954Z,1009.60
2024-03-22T09:13:55.907Z,1009.61
2024-03-22T09:14:55.906Z,1009.57
2024-03-22T09:15:55.874Z,1009.55
2024-03-22T09:16:55.881Z,1009.57
2024-03-22T09:17:55.909Z,1009.50
2024-03-22T09:18:55.841Z,1009.49
2024-03-22T09:19:55.845Z,1009.47
2024-03-22T09:20:55.872Z,1009.54
2024-03-22T09:21:55.811Z,1009.52
2024-03-22T09:22:55.822Z,1009.55
2024-03-22T09:23:55.887Z,1009.55
2024-03-22T09:24:55.774Z,1009.54
2024-03-22T09:25:55.805Z,1009.50
2024-03-22T09:26:55.783Z,1009.55
2024-03-22T09:27:55.747Z,1009.55
2024-03-22T09:28:55.734Z,1009.54
2024-03-22T09:29:55.746Z,1009.59
2024-03-22T09:30:57.997Z,1009.56
2024-03-22T09:31:55.689Z,1009.65
2024-03-22T09:32:55.710Z,1009.57
2024-03-22T09:33:55.668Z,1009.59
2024-03-22T09:34:55.744Z,1009.54
2024-03-22T09:35:55.659Z,1009.54
2024-03-22T09:36:55.684Z,1009.61
2024-03-22T09:37:55.642Z,1009.63
2024-03-22T09:38:55.714Z,1009.67
2024-03-22T09:39:55.623Z,1009.57
2024-03-22T09:40:55.591Z,1009.63
2024-03-22T09:41:55.604Z,1009.55
2024-03-22T09:42:55.644Z,1009.58
2024-03-22T09:43:55.567Z,1009.55
2024-03-22T09:44:55.709Z,1009.57
2024-03-22T09:45:55.542Z,1009.51
2024-03-22T09:46:55.534Z,1009.54
2024-03-22T09:47:55.599Z,1009.55
2024-03-22T09:48:55.522Z,1009.46
2024-03-22T09:49:55.491Z,1009.43
2024-03-22T09:50:55.506Z,1009.44
2024-03-22T09:51:55.476Z,1009.49
2024-03-22T09:52:55.486Z,1009.47
2024-03-22T09:53:55.482Z,1009.44
2024-03-22T09:54:55.471Z,1009.46
2024-03-22T09:55:55.440Z,1009.47
2024-03-22T09:56:55.537Z,1009.51
2024-03-22T09:57:55.420Z,1009.50
2024-03-22T09:58:55.424Z,1009.54
2024-03-22T09:59:55.468Z,1009.49
2024-03-22T10:00:55.393Z,1009.52
2024-03-22T10:01:55.358Z,1009.50
2024-03-22T10:02:55.383Z,1009.47
2024-03-22T10:03:55.361Z,1009.45
2024-03-22T10:04:55.326Z,1009.45
2024-03-22T10:05:55.360Z,1009.46
2024-03-22T10:06:55.292Z,1009.46
2024-03-22T10:07:55.295Z,1009.45
2024-03-22T10:08:55.290Z,1009.53
2024-03-22T10:09:55.266Z,1009.56
2024-03-22T10:10:55.262Z,1009.53
2024-03-22T10:11:55.307Z,1009.55
2024-03-22T10:12:55.238Z,1009.52
2024-03-22T10:13:55.218Z,1009.57
2024-03-22T10:14:55.269Z,1009.58
2024-03-22T10:15:55.196Z,1009.55
2024-03-22T10:16:57.623Z,1009.52
2024-03-22T10:17:55.225Z,1009.55
2024-03-22T10:18:55.160Z,1009.62
2024-03-22T10:19:55.183Z,1009.58
2024-03-22T10:20:55.157Z,1009.64
2024-03-22T10:21:55.127Z,1009.56
2024-03-22T10:22:55.120Z,1009.61
2024-03-22T10:23:55.143Z,1009.62
2024-03-22T10:24:55.114Z,1009.60
2024-03-22T10:25:55.098Z,1009.60
2024-03-22T10:26:55.117Z,1009.64
2024-03-22T10:27:55.108Z,1009.61
2024-03-22T10:28:55.097Z,1009.56
2024-03-22T10:29:55.086Z,1009.54
2024-03-22T10:30:55.034Z,1009.56
2024-03-22T10:31:55.138Z,1009.54
2024-03-22T10:32:55.027Z,1009.60
2024-03-22T10:33:55.047Z,1009.57
2024-03-22T10:34:54.996Z,1009.54
2024-03-22T10:35:54.973Z,1009.55
2024-03-22T10:36:54.965Z,1009.53
2024-03-22T10:37:54.943Z,1009.53
2024-03-22T10:38:55.068Z,1009.58
2024-03-22T10:39:54.930Z,1009.59
2024-03-22T10:40:54.943Z,1009.61
2024-03-22T10:41:54.926Z,1009.60
2024-03-22T10:42:55.146Z,1009.53
2024-03-22T10:43:54.887Z,1009.57
2024-03-22T10:44:54.903Z,1009.55
2024-03-22T10:45:54.878Z,1009.51
2024-03-22T10:46:54.844Z,1009.50
2024-03-22T10:47:54.918Z,1009.49
2024-03-22T10:48:54.893Z,1009.55
2024-03-22T10:49:54.829Z,1009.54
2024-03-22T10:50:54.931Z,1009.52
2024-03-22T10:51:54.814Z,1009.53
2024-03-22T10:52:54.791Z,1009.55
2024-03-22T10:53:54.850Z,1009.51
2024-03-22T10:54:54.801Z,1009.51
2024-03-22T10:55:54.826Z,1009.53
2024-03-22T10:56:54.833Z,1009.48
2024-03-22T10:57:54.728Z,1009.49
2024-03-22T10:58:54.718Z,1009.54
2024-03-22T10:59:54.738Z,1009.52
2024-03-22T11:00:54.695Z,1009.47
2024-03-22T11:01:54.680Z,1009.53
2024-03-22T11:02:54.675Z,1009.46
2024-03-22T11:03:54.678Z,1009.47
2024-03-22T11:04:54.646Z,1009.49
2024-03-22T11:05:54.653Z,1009.40
2024-03-22T11:06:54.624Z,1009.43
2024-03-22T11:07:54.613Z,1009.45
2024-03-22T11:08:54.608Z,1009.36
2024-03-22T11:09:54.586Z,1009.44
2024-03-22T11:10:54.597Z,1009.36
2024-03-22T11:11:56.242Z,1009.37
2024-03-22T11:12:54.562Z,1009.34
2024-03-22T11:13:54.561Z,1009.36
2024-03-22T11:14:54.535Z,1009.38
2024-03-22T11:15:54.545Z,1009.30
2024-03-22T11:16:54.524Z,1009.33
2024-03-22T11:17:54.535Z,1009.28
2024-03-22T11:18:54.483Z,1009.30
2024-03-22T11:19:54.473Z,1009.33
2024-03-22T11:20:54.519Z,1009.29
2024-03-22T11:21:54.465Z,1009.28
2024-03-22T11:22:54.449Z,1009.34
2024-03-22T11:23:54.446Z,1009.31
2024-03-22T11:24:54.430Z,1009.32
2024-03-22T11:25:54.419Z,1009.18
2024-03-22T11:26:54.407Z,1009.23
2024-03-22T11:27:54.385Z,1009.24
2024-03-22T11:28:54.369Z,1009.28
2024-03-22T11:29:54.417Z,1009.22
2024-03-22T11:30:54.353Z,1009.18
2024-03-22T11:31:54.372Z,1009.20
2024-03-22T11:32:54.471Z,1009.25
2024-03-22T11:33:54.323Z,1009.18
2024-03-22T11:34:54.303Z,1009.20
2024-03-22T11:35:54.320Z,1009.18
2024-03-22T11:36:54.287Z,1009.22
2024-03-22T11:37:54.277Z,1009.18
2024-03-22T11:38:54.260Z,1009.15
2024-03-22T11:39:54.250Z,1009.19
2024-03-22T11:40:54.241Z,1009.20
2024-03-22T11:41:54.238Z,1009.26
2024-03-22T11:42:54.230Z,1009.16
2024-03-22T11:43:54.209Z,1009.20
2024-03-22T11:44:54.217Z,1009.20
2024-03-22T11:45:56.379Z,1009.13
2024-03-22T11:46:54.167Z,1009.14
2024-03-22T11:47:54.197Z,1009.19
2024-03-22T11:48:54.147Z,1009.13
2024-03-22T11:49:54.151Z,1009.13
2024-03-22T11:50:54.123Z,1009.18
2024-03-22T11:51:54.126Z,1009.14
2024-03-22T11:52:54.128Z,1009.11
2024-03-22T11:53:54.115Z,1009.14
2024-03-22T11:54:54.100Z,1009.14
2024-03-22T11:55:54.068Z,1009.13
2024-03-22T11:56:54.062Z,1009.10
2024-03-22T11:57:54.073Z,1009.13
2024-03-22T11:58:54.047Z,1009.02
2024-03-22T12:00:06.892Z,1009.03
2024-03-22T12:01:12.454Z,1009.02
2024-03-22T12:01:55.015Z,1009.02
2024-03-22T12:02:54.016Z,1009.08
2024-03-22T12:03:54.003Z,1009.08
2024-03-22T12:04:53.966Z,1009.07
2024-03-22T12:05:53.952Z,1009.05
2024-03-22T12:06:53.950Z,1009.01
2024-03-22T12:07:53.930Z,1008.97
2024-03-22T12:08:53.932Z,1008.93
2024-03-22T12:09:53.912Z,1008.95
2024-03-22T12:10:53.909Z,1008.86
2024-03-22T12:11:53.898Z,1008.93
2024-03-22T12:12:53.876Z,1008.88
2024-03-22T12:13:53.870Z,1008.89
2024-03-22T12:14:53.874Z,1008.88